createdAt,value
2023-05-10T00:01:06.623Z,12.23
2023-05-10T00:03:33.117Z,12.22
2023-05-10T00:05:59.637Z,12.21
2023-05-10T00:08:26.284Z,12.20
2023-05-10T00:10:53.895Z,12.19
2023-05-10T00:13:20.476Z,12.18
2023-05-10T00:15:46.960Z,12.18
2023-05-10T00:18:13.464Z,12.19
2023-05-10T00:20:39.852Z,12.19
2023-05-10T00:23:06.281Z,12.16
2023-05-10T00:25:32.709Z,12.16
2023-05-10T00:27:59.444Z,12.15
2023-05-10T00:30:25.873Z,12.14
2023-05-10T00:32:52.772Z,12.17
2023-05-10T00:35:19.311Z,12.17
2023-05-10T00:37:46.091Z,12.19
2023-05-10T00:40:12.746Z,12.20
2023-05-10T00:42:39.122Z,12.21
2023-05-10T00:45:06.270Z,12.22
2023-05-10T00:47:33.570Z,12.24
2023-05-10T00:50:01.919Z,12.28
2023-05-10T00:52:29.975Z,12.29
2023-05-10T00:54:57.594Z,12.29
2023-05-10T00:57:24.352Z,12.30
2023-05-10T00:59:51.641Z,12.31
2023-05-10T01:02:18.177Z,12.32
2023-05-10T01:04:44.959Z,12.33
2023-05-10T01:07:11.527Z,12.35
2023-05-10T01:09:38.164Z,12.36
2023-05-10T01:12:07.751Z,12.35
2023-05-10T01:14:35.306Z,12.36
2023-05-10T01:17:02.417Z,12.37
2023-05-10T01:19:31.540Z,12.38
2023-05-10T01:22:16.686Z,12.40
2023-05-10T01:25:04.262Z,12.37
2023-05-10T01:27:39.754Z,12.39
2023-05-10T01:30:25.204Z,12.37
2023-05-10T01:33:10.380Z,12.37
2023-05-10T01:35:56.208Z,12.36
2023-05-10T01:38:51.570Z,12.35
2023-05-10T01:41:29.060Z,12.34
2023-05-10T01:44:10.285Z,12.32
2023-05-10T01:46:41.052Z,12.32
2023-05-10T01:49:12.704Z,12.31
2023-05-10T01:51:45.553Z,12.31
2023-05-10T01:54:14.310Z,12.32
2023-05-10T01:56:43.025Z,12.32
2023-05-10T01:59:16.184Z,12.33
2023-05-10T02:01:44.139Z,12.33
2023-05-10T02:04:12.630Z,12.33
2023-05-10T02:06:41.842Z,12.32
2023-05-10T02:09:10.000Z,12.32
2023-05-10T02:11:38.987Z,12.30
2023-05-10T02:14:08.565Z,12.27
2023-05-10T02:16:37.113Z,12.26
2023-05-10T02:19:04.550Z,12.26
2023-05-10T02:21:32.254Z,12.27
2023-05-10T02:24:00.499Z,12.27
2023-05-10T02:26:27.717Z,12.27
2023-05-10T02:28:55.824Z,12.27
2023-05-10T02:31:23.310Z,12.28
2023-05-10T02:33:50.728Z,12.29
2023-05-10T02:36:18.010Z,12.29
2023-05-10T02:38:46.542Z,12.29
2023-05-10T02:41:14.211Z,12.28
2023-05-10T02:43:41.876Z,12.29
2023-05-10T02:46:08.441Z,12.29
2023-05-10T02:48:35.011Z,12.29
2023-05-10T02:51:06.171Z,12.29
2023-05-10T02:53:35.257Z,12.29
2023-05-10T02:56:10.214Z,12.28
2023-05-10T02:58:36.731Z,12.27
2023-05-10T03:01:03.484Z,12.24
2023-05-10T03:03:30.110Z,12.23
2023-05-10T03:05:57.502Z,12.22
2023-05-10T03:08:24.788Z,12.23
2023-05-10T03:11:21.891Z,12.22
2023-05-10T03:14:06.921Z,12.17
2023-05-10T03:16:46.512Z,12.14
2023-05-10T03:19:23.457Z,12.13
2023-05-10T03:21:53.506Z,12.13
2023-05-10T03:24:24.278Z,12.14
2023-05-10T03:26:53.765Z,12.14
2023-05-10T03:29:21.509Z,12.16
2023-05-10T03:31:48.020Z,12.13
2023-05-10T03:34:14.684Z,12.13
2023-05-10T03:36:41.141Z,12.08
2023-05-10T03:39:07.513Z,12.05
2023-05-10T03:41:33.898Z,12.05
2023-05-10T03:44:00.539Z,12.05
2023-05-10T03:46:26.994Z,12.04
2023-05-10T03:48:53.386Z,12.03
2023-05-10T03:51:19.806Z,12.03
2023-05-10T03:53:46.262Z,12.03
2023-05-10T03:56:12.658Z,12.02
2023-05-10T03:58:39.078Z,12.03
2023-05-10T04:01:05.782Z,12.06
2023-05-10T04:03:32.583Z,12.06
2023-05-10T04:06:03.290Z,12.06
2023-05-10T04:08:30.051Z,12.07
2023-05-10T04:11:06.689Z,12.08
2023-05-10T04:13:33.284Z,12.09
2023-05-10T04:15:59.709Z,12.07
2023-05-10T04:18:26.129Z,12.08
2023-05-10T04:20:52.579Z,12.07
2023-05-10T04:23:18.969Z,12.09
2023-05-10T04:25:45.718Z,12.09
2023-05-10T04:28:12.092Z,12.11
2023-05-10T04:30:38.623Z,12.10
2023-05-10T04:33:05.217Z,12.11
2023-05-10T04:35:31.649Z,12.12
2023-05-10T04:37:58.104Z,12.13
2023-05-10T04:40:24.595Z,12.13
2023-05-10T04:42:50.968Z,12.14
2023-05-10T04:45:17.900Z,12.14
2023-05-10T04:47:44.395Z,12.14
2023-05-10T04:50:10.962Z,12.15
2023-05-10T04:52:37.477Z,12.19
2023-05-10T04:55:04.064Z,12.21
2023-05-10T04:57:31.435Z,12.23
2023-05-10T05:00:00.871Z,12.23
2023-05-10T05:02:27.593Z,12.24
2023-05-10T05:04:54.154Z,12.25
2023-05-10T05:07:20.625Z,12.25
2023-05-10T05:09:47.006Z,12.29
2023-05-10T05:12:15.225Z,12.29
2023-05-10T05:14:42.199Z,12.31
2023-05-10T05:17:09.132Z,12.32
2023-05-10T05:19:35.703Z,12.35
2023-05-10T05:22:02.647Z,12.38
2023-05-10T05:24:29.101Z,12.39
2023-05-10T05:26:55.712Z,12.39
2023-05-10T05:29:22.264Z,12.40
2023-05-10T05:31:48.711Z,12.37
2023-05-10T05:34:15.454Z,12.37
2023-05-10T05:36:41.997Z,12.39
2023-05-10T05:39:08.816Z,12.41
2023-05-10T05:41:35.323Z,12.43
2023-05-10T05:44:01.783Z,12.42
2023-05-10T05:46:28.337Z,12.42
2023-05-10T05:48:54.872Z,12.44
2023-05-10T05:51:21.487Z,12.47
2023-05-10T05:53:47.963Z,12.48
2023-05-10T05:56:14.470Z,12.48
2023-05-10T05:58:40.999Z,12.41
2023-05-10T06:01:07.684Z,12.38
2023-05-10T06:03:34.584Z,12.38
2023-05-10T06:06:01.502Z,12.38
2023-05-10T06:08:28.059Z,12.39
2023-05-10T06:10:54.560Z,12.39
2023-05-10T06:13:21.157Z,12.35
2023-05-10T06:15:47.719Z,12.34
2023-05-10T06:18:14.241Z,12.34
2023-05-10T06:20:42.323Z,12.36
2023-05-10T06:23:08.798Z,12.38
2023-05-10T06:25:35.339Z,12.39
2023-05-10T06:28:03.141Z,12.42
2023-05-10T06:30:30.352Z,12.44
2023-05-10T06:32:57.670Z,12.50
2023-05-10T06:35:24.568Z,12.64
2023-05-10T06:37:52.055Z,12.68
2023-05-10T06:40:19.263Z,12.65
2023-05-10T06:42:46.604Z,12.60
2023-05-10T06:45:13.780Z,12.66
2023-05-10T06:47:40.257Z,12.74
2023-05-10T06:50:07.915Z,12.90
2023-05-10T06:52:34.337Z,13.03
2023-05-10T06:55:01.362Z,13.12
2023-05-10T06:57:31.655Z,13.07
2023-05-10T06:59:59.816Z,13.02
2023-05-10T07:02:26.576Z,12.98
2023-05-10T07:04:53.531Z,12.94
2023-05-10T07:07:20.164Z,12.94
2023-05-10T07:09:46.714Z,12.98
2023-05-10T07:12:15.289Z,12.97
2023-05-10T07:14:42.289Z,12.91
2023-05-10T07:17:08.801Z,12.86
2023-05-10T07:19:35.262Z,12.88
2023-05-10T07:22:02.020Z,12.86
2023-05-10T07:24:28.457Z,12.87
2023-05-10T07:26:54.874Z,12.88
2023-05-10T07:29:21.258Z,12.89
2023-05-10T07:31:47.716Z,12.94
2023-05-10T07:34:14.139Z,13.01
2023-05-10T07:36:41.470Z,13.07
2023-05-10T07:39:08.494Z,13.06
2023-05-10T07:41:35.858Z,13.07
2023-05-10T07:44:02.557Z,13.11
2023-05-10T07:46:29.548Z,13.20
2023-05-10T07:48:56.190Z,13.28
2023-05-10T07:51:22.934Z,13.33
2023-05-10T07:53:49.576Z,13.44
2023-05-10T07:56:30.525Z,13.58
2023-05-10T07:58:57.631Z,13.71
2023-05-10T08:01:24.345Z,13.80
2023-05-10T08:03:52.053Z,13.79
2023-05-10T08:06:19.617Z,13.81
2023-05-10T08:08:54.519Z,13.76
2023-05-10T08:11:21.579Z,13.69
2023-05-10T08:13:49.451Z,13.65
2023-05-10T08:16:16.529Z,13.64
2023-05-10T08:18:44.232Z,13.63
2023-05-10T08:21:12.523Z,13.60
2023-05-10T08:23:38.991Z,13.55
2023-05-10T08:26:05.550Z,13.53
2023-05-10T08:28:32.077Z,13.51
2023-05-10T08:30:58.514Z,13.55
2023-05-10T08:33:25.239Z,13.59
2023-05-10T08:35:51.775Z,13.58
2023-05-10T08:38:18.933Z,13.61
2023-05-10T08:40:46.610Z,13.58
2023-05-10T08:43:15.711Z,13.65
2023-05-10T08:45:48.666Z,13.66
2023-05-10T08:48:15.677Z,13.70
2023-05-10T08:50:43.831Z,13.65
2023-05-10T08:53:12.467Z,13.63
2023-05-10T08:55:40.003Z,13.65
2023-05-10T08:58:07.292Z,13.71
2023-05-10T09:00:34.571Z,13.86
2023-05-10T09:03:02.183Z,13.99
2023-05-10T09:05:29.139Z,14.28
2023-05-10T09:07:55.588Z,14.51
2023-05-10T09:10:23.701Z,14.63
2023-05-10T09:12:50.794Z,14.63
2023-05-10T09:15:20.238Z,14.52
2023-05-10T09:17:48.123Z,14.57
2023-05-10T09:20:14.705Z,14.74
2023-05-10T09:22:41.495Z,14.83
2023-05-10T09:25:13.476Z,15.12
2023-05-10T09:27:46.347Z,15.50
2023-05-10T09:30:18.967Z,15.81
2023-05-10T09:32:47.569Z,15.91
2023-05-10T09:35:17.053Z,16.12
2023-05-10T09:37:46.891Z,16.47
2023-05-10T09:40:16.132Z,16.35
2023-05-10T09:42:44.320Z,16.38
2023-05-10T09:45:10.963Z,16.72
2023-05-10T09:47:38.155Z,16.92
2023-05-10T09:50:05.625Z,16.85
2023-05-10T09:52:52.301Z,16.73
2023-05-10T09:55:21.596Z,16.50
2023-05-10T09:57:49.352Z,16.49
2023-05-10T10:00:21.199Z,16.56
2023-05-10T10:02:54.869Z,16.47
2023-05-10T10:05:21.594Z,16.32
2023-05-10T10:07:50.211Z,16.21
2023-05-10T10:10:16.844Z,16.23
2023-05-10T10:12:43.532Z,16.19
2023-05-10T10:15:10.655Z,16.21
2023-05-10T10:17:39.735Z,16.26
2023-05-10T10:20:08.674Z,16.29
2023-05-10T10:22:37.754Z,16.23
2023-05-10T10:25:05.915Z,16.21
2023-05-10T10:27:40.583Z,16.23
2023-05-10T10:30:29.141Z,16.33
2023-05-10T10:33:28.855Z,16.43
2023-05-10T10:35:58.815Z,16.49
2023-05-10T10:38:25.511Z,16.48
2023-05-10T10:41:10.584Z,16.43
2023-05-10T10:43:36.971Z,16.32
2023-05-10T10:46:16.925Z,16.21
2023-05-10T10:48:52.485Z,16.19
2023-05-10T10:51:19.122Z,16.21
2023-05-10T10:53:48.512Z,16.26
2023-05-10T10:56:16.215Z,16.36
2023-05-10T10:58:52.226Z,16.44
2023-05-10T11:01:20.596Z,16.48
2023-05-10T11:03:59.504Z,16.41
2023-05-10T11:06:37.073Z,16.43
2023-05-10T11:09:09.038Z,16.55
2023-05-10T11:11:36.670Z,16.61
2023-05-10T11:14:07.919Z,16.78
2023-05-10T11:16:44.928Z,16.73
2023-05-10T11:19:13.157Z,16.72
2023-05-10T11:21:48.816Z,16.70
2023-05-10T11:24:20.867Z,16.66
2023-05-10T11:26:50.731Z,16.58
2023-05-10T11:29:17.309Z,16.54
2023-05-10T11:31:47.955Z,16.58
2023-05-10T11:34:36.193Z,16.59
2023-05-10T11:37:03.253Z,16.76
2023-05-10T11:39:31.485Z,16.93
2023-05-10T11:41:59.248Z,17.17
2023-05-10T11:44:31.990Z,17.55
2023-05-10T11:47:03.784Z,17.75
2023-05-10T11:49:31.045Z,17.94
2023-05-10T11:52:08.112Z,17.97
2023-05-10T11:54:36.116Z,18.21
2023-05-10T11:57:02.775Z,18.41
2023-05-10T12:00:04.463Z,18.28
2023-05-10T12:02:31.479Z,18.12
2023-05-10T12:04:58.460Z,17.90
2023-05-10T12:07:27.274Z,17.83
2023-05-10T12:10:07.465Z,17.65
2023-05-10T12:12:48.311Z,17.50
2023-05-10T12:15:19.361Z,17.40
2023-05-10T12:17:46.976Z,17.33
2023-05-10T12:20:28.309Z,17.44
2023-05-10T12:22:59.670Z,17.53
2023-05-10T12:25:31.975Z,17.56
2023-05-10T12:28:01.789Z,17.76
2023-05-10T12:30:30.351Z,18.03
2023-05-10T12:33:09.252Z,18.19
2023-05-10T12:35:48.833Z,18.35
2023-05-10T12:38:34.346Z,18.81
2023-05-10T12:41:05.145Z,19.09
2023-05-10T12:43:31.928Z,19.19
2023-05-10T12:45:58.726Z,19.27
2023-05-10T12:48:25.900Z,19.52
2023-05-10T12:50:52.380Z,19.68
2023-05-10T12:53:18.890Z,19.81
2023-05-10T12:55:45.694Z,19.88
2023-05-10T12:58:15.818Z,19.76
2023-05-10T13:00:47.639Z,19.57
2023-05-10T13:03:14.154Z,19.62
2023-05-10T13:05:40.709Z,19.65
2023-05-10T13:08:07.088Z,19.65
2023-05-10T13:10:33.487Z,19.50
2023-05-10T13:13:00.386Z,19.43
2023-05-10T13:15:27.280Z,19.33
2023-05-10T13:17:54.745Z,18.98
2023-05-10T13:20:21.663Z,18.84
2023-05-10T13:22:48.845Z,18.72
2023-05-10T13:25:16.468Z,18.64
2023-05-10T13:27:42.841Z,18.50
2023-05-10T13:30:10.422Z,18.18
2023-05-10T13:32:37.054Z,17.75
2023-05-10T13:35:07.078Z,17.32
2023-05-10T13:37:36.387Z,17.06
2023-05-10T13:40:02.836Z,16.78
2023-05-10T13:42:29.374Z,16.54
2023-05-10T13:44:55.777Z,16.31
2023-05-10T13:47:23.293Z,16.15
2023-05-10T13:49:49.768Z,16.00
2023-05-10T13:52:16.193Z,15.89
2023-05-10T13:54:42.606Z,15.80
2023-05-10T13:57:09.194Z,15.67
2023-05-10T13:59:35.699Z,15.51
2023-05-10T14:02:05.119Z,15.44
2023-05-10T14:04:32.498Z,15.36
2023-05-10T14:06:59.008Z,15.23
2023-05-10T14:09:25.333Z,15.10
2023-05-10T14:11:52.073Z,15.04
2023-05-10T14:14:18.436Z,14.97
2023-05-10T14:16:45.652Z,14.90
2023-05-10T14:19:12.352Z,14.91
2023-05-10T14:21:39.321Z,14.90
2023-05-10T14:24:07.586Z,14.89
2023-05-10T14:26:35.261Z,14.85
2023-05-10T14:29:01.682Z,14.79
2023-05-10T14:31:28.227Z,14.70
2023-05-10T14:33:54.741Z,14.66
2023-05-10T14:36:21.263Z,14.61
2023-05-10T14:38:47.661Z,14.59
2023-05-10T14:41:16.008Z,14.57
2023-05-10T14:43:42.471Z,14.53
2023-05-10T14:46:09.576Z,14.47
2023-05-10T14:48:36.252Z,14.44
2023-05-10T14:51:03.081Z,14.44
2023-05-10T14:53:29.534Z,14.47
2023-05-10T14:55:55.932Z,14.50
2023-05-10T14:58:22.351Z,14.50
2023-05-10T15:00:48.724Z,14.54
2023-05-10T15:03:15.479Z,14.57
2023-05-10T15:05:42.491Z,14.62
2023-05-10T15:08:10.186Z,14.60
2023-05-10T15:10:37.683Z,14.66
2023-05-10T15:13:04.982Z,14.72
2023-05-10T15:15:31.762Z,14.73
2023-05-10T15:17:58.345Z,14.74
2023-05-10T15:20:24.739Z,14.80
2023-05-10T15:22:51.183Z,14.84
2023-05-10T15:25:18.238Z,14.96
2023-05-10T15:27:44.830Z,15.18
2023-05-10T15:30:11.841Z,15.32
2023-05-10T15:32:40.280Z,15.41
2023-05-10T15:35:08.572Z,15.51
2023-05-10T15:37:34.939Z,15.64
2023-05-10T15:40:04.916Z,15.62
2023-05-10T15:42:32.766Z,15.68
2023-05-10T15:44:59.594Z,15.76
2023-05-10T15:47:26.990Z,15.77
2023-05-10T15:49:53.443Z,15.84
2023-05-10T15:52:21.052Z,15.90
2023-05-10T15:54:47.549Z,16.02
2023-05-10T15:57:14.132Z,16.12
2023-05-10T15:59:40.566Z,16.13
2023-05-10T16:02:08.743Z,16.11
2023-05-10T16:04:35.186Z,16.11
2023-05-10T16:07:01.603Z,16.07
2023-05-10T16:09:28.200Z,16.03
2023-05-10T16:11:54.949Z,16.08
2023-05-10T16:14:22.987Z,16.11
2023-05-10T16:16:49.621Z,16.14
2023-05-10T16:19:16.240Z,16.10
2023-05-10T16:21:42.785Z,16.13
2023-05-10T16:24:09.360Z,16.11
2023-05-10T16:26:40.932Z,16.09
2023-05-10T16:29:10.758Z,16.07
2023-05-10T16:31:37.299Z,16.03
2023-05-10T16:34:03.849Z,15.97
2023-05-10T16:36:31.348Z,16.01
2023-05-10T16:38:58.330Z,15.99
2023-05-10T16:41:24.834Z,16.01
2023-05-10T16:43:51.438Z,16.02
2023-05-10T16:46:17.961Z,15.98
2023-05-10T16:48:44.326Z,15.96
2023-05-10T16:51:11.067Z,15.99
2023-05-10T16:53:37.813Z,16.12
2023-05-10T16:56:04.293Z,16.13
2023-05-10T16:58:30.981Z,16.16
2023-05-10T17:00:57.367Z,16.19
2023-05-10T17:03:23.841Z,16.23
2023-05-10T17:05:50.432Z,16.22
2023-05-10T17:08:16.991Z,16.21
2023-05-10T17:10:43.398Z,16.21
2023-05-10T17:13:10.700Z,16.26
2023-05-10T17:15:38.162Z,16.27
2023-05-10T17:18:07.949Z,16.24
2023-05-10T17:20:34.563Z,16.22
2023-05-10T17:23:02.636Z,16.21
2023-05-10T17:25:29.415Z,16.19
2023-05-10T17:27:55.842Z,16.15
2023-05-10T17:30:26.270Z,16.09
2023-05-10T17:32:54.271Z,16.04
2023-05-10T17:35:21.287Z,15.96
2023-05-10T17:37:47.734Z,15.78
2023-05-10T17:40:14.377Z,15.60
2023-05-10T17:42:40.906Z,15.30
2023-05-10T17:45:07.975Z,15.08
2023-05-10T17:47:34.411Z,15.01
2023-05-10T17:50:00.841Z,14.98
2023-05-10T17:52:29.339Z,15.09
2023-05-10T17:54:56.738Z,15.24
2023-05-10T17:57:23.756Z,15.34
2023-05-10T17:59:50.579Z,15.20
2023-05-10T18:02:17.089Z,15.11
2023-05-10T18:04:43.793Z,15.20
2023-05-10T18:07:10.230Z,15.24
2023-05-10T18:09:36.671Z,15.17
2023-05-10T18:12:03.327Z,15.27
2023-05-10T18:14:40.022Z,15.35
2023-05-10T18:17:06.905Z,15.43
2023-05-10T18:19:33.471Z,15.50
2023-05-10T18:21:59.845Z,15.56
2023-05-10T18:24:37.630Z,15.61
2023-05-10T18:27:06.642Z,15.64
2023-05-10T18:29:33.063Z,15.60
2023-05-10T18:31:59.446Z,15.59
2023-05-10T18:34:25.858Z,15.58
2023-05-10T18:36:52.457Z,15.52
2023-05-10T18:39:18.930Z,15.54
2023-05-10T18:41:45.763Z,15.52
2023-05-10T18:44:12.166Z,15.48
2023-05-10T18:46:38.830Z,15.41
2023-05-10T18:49:06.533Z,15.38
2023-05-10T18:51:33.024Z,15.33
2023-05-10T18:53:59.435Z,15.28
2023-05-10T18:56:25.854Z,15.24
2023-05-10T18:58:52.632Z,15.13
2023-05-10T19:01:19.095Z,15.03
2023-05-10T19:03:45.550Z,14.98
2023-05-10T19:06:12.000Z,14.89
2023-05-10T19:08:38.434Z,14.86
2023-05-10T19:11:04.831Z,14.80
2023-05-10T19:13:31.369Z,14.67
2023-05-10T19:16:15.853Z,14.59
2023-05-10T19:18:44.798Z,14.53
2023-05-10T19:21:11.414Z,14.40
2023-05-10T19:23:40.294Z,14.27
2023-05-10T19:26:06.929Z,14.16
2023-05-10T19:28:34.225Z,14.15
2023-05-10T19:31:01.822Z,14.12
2023-05-10T19:33:28.726Z,14.09
2023-05-10T19:35:55.933Z,14.09
2023-05-10T19:38:23.061Z,14.05
2023-05-10T19:40:57.966Z,14.02
2023-05-10T19:43:28.869Z,13.96
2023-05-10T19:45:59.216Z,13.92
2023-05-10T19:48:26.046Z,13.85
2023-05-10T19:50:53.660Z,13.78
2023-05-10T19:53:20.249Z,13.75
2023-05-10T19:55:46.610Z,13.70
2023-05-10T19:58:13.269Z,13.67
2023-05-10T20:00:39.669Z,13.65
2023-05-10T20:03:09.019Z,13.54
2023-05-10T20:05:35.781Z,13.39
2023-05-10T20:08:02.207Z,13.35
2023-05-10T20:10:28.597Z,13.30
2023-05-10T20:12:55.001Z,13.26
2023-05-10T20:15:22.929Z,13.20
2023-05-10T20:17:51.948Z,13.17
2023-05-10T20:20:20.097Z,13.15
2023-05-10T20:22:50.543Z,13.12
2023-05-10T20:25:18.416Z,13.11
2023-05-10T20:27:44.952Z,13.09
2023-05-10T20:30:11.779Z,13.04
2023-05-10T20:32:38.632Z,13.03
2023-05-10T20:35:05.930Z,13.04
2023-05-10T20:37:32.945Z,13.00
2023-05-10T20:39:59.426Z,12.94
2023-05-10T20:42:25.935Z,12.93
2023-05-10T20:44:52.396Z,12.90
2023-05-10T20:47:18.947Z,12.87
2023-05-10T20:49:45.605Z,12.85
2023-05-10T20:52:12.037Z,12.81
2023-05-10T20:54:38.424Z,12.77
2023-05-10T20:57:04.933Z,12.74
2023-05-10T20:59:31.435Z,12.73
2023-05-10T21:01:58.198Z,12.72
2023-05-10T21:04:25.758Z,12.72
2023-05-10T21:06:53.008Z,12.75
2023-05-10T21:09:19.426Z,12.75
2023-05-10T21:11:45.851Z,12.73
2023-05-10T21:14:12.253Z,12.71
2023-05-10T21:16:38.941Z,12.70
2023-05-10T21:19:07.076Z,12.68
2023-05-10T21:21:33.766Z,12.67
2023-05-10T21:24:00.170Z,12.67
2023-05-10T21:26:26.570Z,12.69
2023-05-10T21:28:52.976Z,12.68
2023-05-10T21:31:19.395Z,12.65
2023-05-10T21:33:45.963Z,12.66
2023-05-10T21:36:12.997Z,12.66
2023-05-10T21:38:39.483Z,12.65
2023-05-10T21:41:08.662Z,12.63
2023-05-10T21:43:35.170Z,12.64
2023-05-10T21:46:01.619Z,12.62
2023-05-10T21:48:28.144Z,12.60
2023-05-10T21:50:54.564Z,12.60
2023-05-10T21:53:21.003Z,12.60
2023-05-10T21:55:48.137Z,12.59
2023-05-10T21:58:14.681Z,12.55
2023-05-10T22:00:41.113Z,12.51
2023-05-10T22:03:07.681Z,12.50
2023-05-10T22:05:34.303Z,12.47
2023-05-10T22:08:00.971Z,12.46
2023-05-10T22:10:27.383Z,12.43
2023-05-10T22:12:53.880Z,12.41
2023-05-10T22:15:20.252Z,12.40
2023-05-10T22:17:46.693Z,12.40
2023-05-10T22:20:13.298Z,12.40
2023-05-10T22:22:39.722Z,12.39
2023-05-10T22:25:07.378Z,12.41
2023-05-10T22:27:34.065Z,12.40
2023-05-10T22:30:00.437Z,12.41
2023-05-10T22:32:26.996Z,12.44
2023-05-10T22:34:54.616Z,12.44
2023-05-10T22:37:21.139Z,12.43
2023-05-10T22:39:48.710Z,12.43
2023-05-10T22:42:15.319Z,12.44
2023-05-10T22:44:42.714Z,12.46
2023-05-10T22:47:09.204Z,12.48
2023-05-10T22:49:35.737Z,12.48
2023-05-10T22:52:02.316Z,12.50
2023-05-10T22:54:28.755Z,12.49
2023-05-10T22:56:56.431Z,12.49
2023-05-10T22:59:23.335Z,12.47
2023-05-10T23:01:49.994Z,12.47
2023-05-10T23:04:16.470Z,12.47
2023-05-10T23:06:42.929Z,12.48
2023-05-10T23:09:09.786Z,12.48
2023-05-10T23:11:36.503Z,12.48
2023-05-10T23:14:03.232Z,12.49
2023-05-10T23:16:29.763Z,12.47
2023-05-10T23:18:56.297Z,12.46
2023-05-10T23:21:22.817Z,12.45
2023-05-10T23:23:49.334Z,12.41
2023-05-10T23:26:16.290Z,12.41
2023-05-10T23:28:42.670Z,12.41
2023-05-10T23:31:09.136Z,12.40
2023-05-10T23:33:35.589Z,12.40
2023-05-10T23:36:01.981Z,12.39
2023-05-10T23:38:28.386Z,12.39
2023-05-10T23:40:54.957Z,12.39
2023-05-10T23:43:21.854Z,12.38
2023-05-10T23:45:58.125Z,12.39
2023-05-10T23:48:24.703Z,12.40
2023-05-10T23:50:51.244Z,12.41
2023-05-10T23:53:17.700Z,12.40
2023-05-10T23:55:45.033Z,12.40
2023-05-10T23:58:11.812Z,12.40
